Time,TemperatureF,DewpointF,PressureIn,WindDirection,WindDirectionDegrees,WindSpeedMPH,WindSpeedGustMPH,Humidity,HourlyPrecipIn,Conditions,Clouds,dailyrainin,SoftwareType,DateUTC
2013-11-27 00:01:00,77.7,70.7,29.75,SW,225,0.0,5.8,79,0.00,,---,0.04,VWS V13.01,2013-11-27 05:01:00,
2013-11-27 00:02:00,77.7,70.7,29.75,SW,225,0.0,0.0,79,0.00,,---,0.04,VWS V13.01,2013-11-27 05:02:00,
2013-11-27 00:07:00,77.7,70.3,29.75,SW,225,1.3,1.3,78,0.00,,---,0.04,VWS V13.01,2013-11-27 05:07:00,
2013-11-27 00:12:00,77.7,70.7,29.75,SW,225,0.0,3.6,79,0.00,,---,0.04,VWS V13.01,2013-11-27 05:12:00,
2013-11-27 00:17:00,77.9,71.2,29.75,SW,225,0.0,3.6,80,0.00,,---,0.04,VWS V13.01,2013-11-27 05:17:00,
2013-11-27 00:22:00,77.5,70.9,29.75,SSW,202,0.0,3.6,80,0.00,,---,0.04,VWS V13.01,2013-11-27 05:22:00,
2013-11-27 00:27:00,77.7,71.1,29.76,SW,225,0.0,3.6,80,0.00,,---,0.04,VWS V13.01,2013-11-27 05:27:00,
2013-11-27 00:32:00,77.7,71.4,29.76,South,180,2.5,4.0,81,0.02,,---,0.06,VWS V13.01,2013-11-27 05:32:00,
2013-11-27 00:37:00,77.7,71.4,29.75,SW,225,0.0,5.6,81,0.02,,---,0.06,VWS V13.01,2013-11-27 05:37:00,
2013-11-27 00:42:00,77.5,71.2,29.76,SW,225,0.0,5.6,81,0.02,,---,0.06,VWS V13.01,2013-11-27 05:42:00,
2013-11-27 00:47:00,77.4,71.1,29.76,SW,225,3.6,5.6,81,0.02,,---,0.06,VWS V13.01,2013-11-27 05:47:00,
2013-11-27 00:59:00,77.4,71.4,29.77,SSW,202,2.2,6.0,82,0.02,,---,0.06,VWS V13.01,2013-11-27 05:59:00,
2013-11-27 01:04:00,77.4,71.4,29.77,SW,225,0.0,6.0,82,0.02,,---,0.06,VWS V13.01,2013-11-27 06:04:00,
2013-11-27 01:09:00,77.4,71.4,29.77,SW,225,0.0,6.0,82,0.02,,---,0.06,VWS V13.01,2013-11-27 06:09:00,
2013-11-27 01:14:00,77.2,71.3,29.76,SE,135,0.0,4.9,82,0.04,,---,0.08,VWS V13.01,2013-11-27 06:14:00,
2013-11-27 01:18:00,77.2,71.6,29.76,SE,135,0.9,4.9,83,0.04,,---,0.08,VWS V13.01,2013-11-27 06:18:00,
2013-11-27 01:24:00,76.8,71.3,29.76,SW,225,6.7,6.7,83,0.04,,---,0.08,VWS V13.01,2013-11-27 06:24:00,
2013-11-27 01:29:00,76.5,70.6,29.76,SW,225,1.8,12.1,82,0.04,,---,0.08,VWS V13.01,2013-11-27 06:29:00,
2013-11-27 01:33:00,75.9,70.0,29.76,SW,225,2.5,12.1,82,0.02,,---,0.08,VWS V13.01,2013-11-27 06:33:00,
2013-11-27 01:38:00,75.4,69.5,29.75,SW,225,1.3,12.1,82,0.02,,---,0.08,VWS V13.01,2013-11-27 06:38:00,
2013-11-27 01:43:00,75.0,68.8,29.75,SW,225,1.1,12.1,81,0.02,,---,0.08,VWS V13.01,2013-11-27 06:43:00,
2013-11-27 01:48:00,74.7,68.1,29.75,SSW,202,0.0,12.1,80,0.02,,---,0.08,VWS V13.01,2013-11-27 06:48:00,
2013-11-27 01:53:00,74.3,67.7,29.74,SSW,202,0.0,12.1,80,0.02,,---,0.08,VWS V13.01,2013-11-27 06:53:00,
2013-11-27 01:58:00,74.1,67.9,29.74,SSW,202,0.0,12.1,81,0.02,,---,0.08,VWS V13.01,2013-11-27 06:58:00,
2013-11-27 02:03:00,74.1,67.9,29.73,SSE,158,0.0,6.0,81,0.10,,---,0.16,VWS V13.01,2013-11-27 07:03:00,
2013-11-27 02:09:00,73.8,67.6,29.73,SSW,202,0.0,6.0,81,0.08,,---,0.16,VWS V13.01,2013-11-27 07:09:00,
2013-11-27 02:14:00,73.8,67.6,29.73,SSW,202,0.0,6.0,81,0.08,,---,0.16,VWS V13.01,2013-11-27 07:14:00,
2013-11-27 02:18:00,73.8,67.6,29.73,SSW,202,0.0,6.0,81,0.08,,---,0.16,VWS V13.01,2013-11-27 07:18:00,
2013-11-27 02:23:00,73.6,67.4,29.73,SSW,202,0.0,6.0,81,0.08,,---,0.16,VWS V13.01,2013-11-27 07:23:00,
2013-11-27 02:28:00,73.6,67.4,29.73,SW,225,0.9,6.0,81,0.08,,---,0.16,VWS V13.01,2013-11-27 07:28:00,
2013-11-27 02:33:00,73.6,67.4,29.73,SW,225,0.0,6.0,81,0.08,,---,0.16,VWS V13.01,2013-11-27 07:33:00,
2013-11-27 02:38:00,73.6,67.8,29.73,SW,225,4.0,6.0,82,0.08,,---,0.16,VWS V13.01,2013-11-27 07:38:00,
2013-11-27 02:43:00,73.4,67.6,29.73,SSW,202,0.0,6.5,82,0.08,,---,0.16,VWS V13.01,2013-11-27 07:43:00,
2013-11-27 02:48:00,73.4,67.6,29.73,SW,225,2.9,6.5,82,0.08,,---,0.16,VWS V13.01,2013-11-27 07:48:00,
2013-11-27 02:53:00,73.2,67.4,29.73,SW,225,0.0,6.5,82,0.08,,---,0.16,VWS V13.01,2013-11-27 07:53:00,
2013-11-27 02:58:00,73.0,67.2,29.72,South,180,2.0,6.5,82,0.08,,---,0.16,VWS V13.01,2013-11-27 07:58:00,
2013-11-27 03:03:00,73.0,67.2,29.73,South,180,0.0,1.1,82,0.00,,---,0.16,VWS V13.01,2013-11-27 08:03:00,
2013-11-27 03:08:00,73.0,67.2,29.73,South,180,0.0,1.1,82,0.00,,---,0.16,VWS V13.01,2013-11-27 08:08:00,
2013-11-27 03:13:00,73.0,67.2,29.73,South,180,0.0,1.3,82,0.00,,---,0.16,VWS V13.01,2013-11-27 08:13:00,
2013-11-27 03:18:00,73.0,67.2,29.73,SSW,202,0.0,5.1,82,0.00,,---,0.16,VWS V13.01,2013-11-27 08:18:00,
2013-11-27 03:23:00,73.0,67.2,29.72,SSW,202,0.0,5.1,82,0.00,,---,0.16,VWS V13.01,2013-11-27 08:23:00,
2013-11-27 03:28:00,73.0,67.2,29.73,SSW,202,0.0,5.1,82,0.00,,---,0.16,VWS V13.01,2013-11-27 08:28:00,
2013-11-27 03:33:00,72.9,67.1,29.72,SSW,202,0.0,5.1,82,0.00,,---,0.16,VWS V13.01,2013-11-27 08:33:00,
2013-11-27 03:38:00,72.9,67.1,29.72,SSW,202,0.0,5.1,82,0.00,,---,0.16,VWS V13.01,2013-11-27 08:38:00,
2013-11-27 03:43:00,72.9,67.1,29.72,South,180,0.0,5.1,82,0.00,,---,0.16,VWS V13.01,2013-11-27 08:43:00,
2013-11-27 03:48:00,72.9,67.4,29.72,South,180,0.0,5.1,83,0.00,,---,0.16,VWS V13.01,2013-11-27 08:48:00,
2013-11-27 03:53:00,72.9,67.4,29.72,South,180,0.0,5.1,83,0.00,,---,0.16,VWS V13.01,2013-11-27 08:53:00,
2013-11-27 03:58:00,72.9,67.4,29.72,South,180,1.6,5.1,83,0.00,,---,0.16,VWS V13.01,2013-11-27 08:58:00,
2013-11-27 04:03:00,72.9,67.4,29.72,SW,225,0.0,5.6,83,0.00,,---,0.16,VWS V13.01,2013-11-27 09:03:00,
2013-11-27 04:08:00,72.9,67.4,29.72,SW,225,0.0,5.6,83,0.00,,---,0.16,VWS V13.01,2013-11-27 09:08:00,
2013-11-27 04:13:00,72.9,67.4,29.72,SW,225,0.0,5.6,83,0.00,,---,0.16,VWS V13.01,2013-11-27 09:13:00,
2013-11-27 04:18:00,72.9,67.4,29.71,SW,225,0.0,5.6,83,0.00,,---,0.16,VWS V13.01,2013-11-27 09:18:00,
2013-11-27 04:23:00,72.9,67.8,29.71,SSW,202,0.0,5.6,84,0.00,,---,0.16,VWS V13.01,2013-11-27 09:23:00,
2013-11-27 04:28:00,72.9,67.8,29.71,South,180,0.0,5.6,84,0.00,,---,0.16,VWS V13.01,2013-11-27 09:28:00,
2013-11-27 04:33:00,72.9,67.8,29.71,South,180,0.0,5.6,84,0.00,,---,0.16,VWS V13.01,2013-11-27 09:33:00,
2013-11-27 04:38:00,72.9,67.8,29.71,South,180,2.5,5.6,84,0.00,,---,0.16,VWS V13.01,2013-11-27 09:38:00,
2013-11-27 04:43:00,72.7,67.6,29.70,SSW,202,0.0,5.6,84,0.00,,---,0.16,VWS V13.01,2013-11-27 09:43:00,
2013-11-27 04:48:00,72.5,67.4,29.70,SSE,158,0.0,5.6,84,0.00,,---,0.16,VWS V13.01,2013-11-27 09:48:00,
2013-11-27 04:53:00,72.7,67.6,29.70,SW,225,0.0,5.6,84,0.00,,---,0.16,VWS V13.01,2013-11-27 09:53:00,
2013-11-27 04:58:00,72.7,67.6,29.70,SSW,202,1.6,5.6,84,0.00,,---,0.16,VWS V13.01,2013-11-27 09:58:00,
2013-11-27 05:03:00,72.5,67.4,29.71,SSW,202,0.0,0.0,84,0.00,,---,0.16,VWS V13.01,2013-11-27 10:03:00,
2013-11-27 05:08:00,72.7,67.6,29.71,SSW,202,0.0,2.2,84,0.00,,---,0.16,VWS V13.01,2013-11-27 10:08:00,
2013-11-27 05:13:00,72.9,67.8,29.71,SSE,158,0.0,3.6,84,0.00,,---,0.16,VWS V13.01,2013-11-27 10:13:00,
2013-11-27 05:18:00,72.5,67.4,29.71,SSE,158,0.0,3.8,84,0.00,,---,0.16,VWS V13.01,2013-11-27 10:18:00,
2013-11-27 05:23:00,72.5,67.4,29.72,SSE,158,0.0,5.6,84,0.00,,---,0.16,VWS V13.01,2013-11-27 10:23:00,
2013-11-27 05:28:00,72.7,67.6,29.73,SSE,158,0.0,5.6,84,0.00,,---,0.16,VWS V13.01,2013-11-27 10:28:00,
2013-11-27 05:33:00,72.7,67.6,29.73,South,180,1.8,5.6,84,0.00,,---,0.16,VWS V13.01,2013-11-27 10:33:00,
2013-11-27 05:38:00,72.7,67.6,29.73,South,180,0.0,5.6,84,0.00,,---,0.16,VWS V13.01,2013-11-27 10:38:00,
2013-11-27 05:43:00,72.7,67.9,29.73,SSW,202,0.0,5.6,85,0.00,,---,0.16,VWS V13.01,2013-11-27 10:43:00,
2013-11-27 05:48:00,72.7,67.9,29.74,SW,225,0.0,5.8,85,0.00,,---,0.16,VWS V13.01,2013-11-27 10:48:00,
2013-11-27 05:53:00,72.7,67.9,29.73,SW,225,0.0,5.8,85,0.00,,---,0.16,VWS V13.01,2013-11-27 10:53:00,
2013-11-27 05:58:00,72.5,67.7,29.74,SSW,202,0.0,5.8,85,0.00,,---,0.16,VWS V13.01,2013-11-27 10:58:00,
2013-11-27 06:03:00,72.7,67.9,29.73,SSW,202,0.0,0.0,85,0.00,,---,0.16,VWS V13.01,2013-11-27 11:03:00,
2013-11-27 06:08:00,72.7,67.9,29.74,South,180,0.0,0.0,85,0.00,,---,0.16,VWS V13.01,2013-11-27 11:08:00,
2013-11-27 06:13:00,72.9,68.1,29.74,SSW,202,0.0,3.6,85,0.00,,---,0.16,VWS V13.01,2013-11-27 11:13:00,
2013-11-27 06:18:00,72.9,68.1,29.73,SSW,202,0.0,3.6,85,0.00,,---,0.16,VWS V13.01,2013-11-27 11:18:00,
2013-11-27 06:23:00,72.9,68.1,29.73,SSW,202,0.0,3.6,85,0.00,,---,0.16,VWS V13.01,2013-11-27 11:23:00,
2013-11-27 06:28:00,72.9,68.1,29.74,SSW,202,0.0,3.6,85,0.00,,---,0.16,VWS V13.01,2013-11-27 11:28:00,
2013-11-27 06:33:00,72.9,68.1,29.74,SSW,202,0.0,3.6,85,0.00,,---,0.16,VWS V13.01,2013-11-27 11:33:00,
2013-11-27 06:38:00,72.9,68.1,29.74,SSW,202,0.0,3.6,85,0.00,,---,0.16,VWS V13.01,2013-11-27 11:38:00,
2013-11-27 06:43:00,72.9,68.1,29.74,SSW,202,0.0,3.6,85,0.00,,---,0.16,VWS V13.01,2013-11-27 11:43:00,
2013-11-27 06:48:00,72.9,68.4,29.75,SSW,202,0.0,6.0,86,0.00,,---,0.16,VWS V13.01,2013-11-27 11:48:00,
2013-11-27 06:53:00,72.7,68.3,29.75,SW,225,0.0,6.0,86,0.00,,---,0.16,VWS V13.01,2013-11-27 11:53:00,
2013-11-27 06:58:00,72.9,68.4,29.75,SSW,202,0.0,6.0,86,0.00,,---,0.16,VWS V13.01,2013-11-27 11:58:00,
2013-11-27 07:03:00,72.9,68.4,29.76,SSW,202,0.0,4.3,86,0.00,,---,0.16,VWS V13.01,2013-11-27 12:03:00,
2013-11-27 07:08:00,72.9,68.4,29.76,SSW,202,0.0,4.3,86,0.00,,---,0.16,VWS V13.01,2013-11-27 12:08:00,
2013-11-27 07:13:00,72.9,68.4,29.75,SSW,202,0.0,5.4,86,0.00,,---,0.16,VWS V13.01,2013-11-27 12:13:00,
2013-11-27 07:18:00,72.9,68.4,29.75,SSW,202,2.2,5.4,86,0.00,,---,0.16,VWS V13.01,2013-11-27 12:18:00,
2013-11-27 07:23:00,72.7,68.3,29.75,SW,225,4.0,5.4,86,0.00,,---,0.16,VWS V13.01,2013-11-27 12:23:00,
2013-11-27 07:28:00,72.7,68.3,29.76,SSW,202,4.0,5.4,86,0.00,,---,0.16,VWS V13.01,2013-11-27 12:28:00,
2013-11-27 07:33:00,72.5,68.1,29.75,SSW,202,0.0,5.4,86,0.00,,---,0.16,VWS V13.01,2013-11-27 12:33:00,
2013-11-27 07:38:00,72.5,68.1,29.75,SW,225,5.1,5.4,86,0.00,,---,0.16,VWS V13.01,2013-11-27 12:38:00,
2013-11-27 07:43:00,72.5,68.1,29.76,South,180,0.0,5.4,86,0.00,,---,0.16,VWS V13.01,2013-11-27 12:43:00,
2013-11-27 07:48:00,72.5,68.1,29.76,South,180,0.0,5.6,86,0.00,,---,0.16,VWS V13.01,2013-11-27 12:48:00,
2013-11-27 07:53:00,72.3,67.9,29.76,SW,225,4.0,5.6,86,0.00,,---,0.16,VWS V13.01,2013-11-27 12:53:00,
2013-11-27 07:58:00,72.3,67.9,29.76,SW,225,0.0,5.6,86,0.00,,---,0.16,VWS V13.01,2013-11-27 12:58:00,
2013-11-27 08:03:00,72.3,67.9,29.77,SW,225,0.0,3.1,86,0.00,,---,0.16,VWS V13.01,2013-11-27 13:03:00,
2013-11-27 08:08:00,72.5,68.1,29.77,SW,225,0.0,6.3,86,0.00,,---,0.16,VWS V13.01,2013-11-27 13:08:00,
2013-11-27 08:13:00,72.7,68.3,29.78,SW,225,0.0,6.3,86,0.00,,---,0.16,VWS V13.01,2013-11-27 13:13:00,
2013-11-27 08:18:00,72.7,68.3,29.78,SW,225,0.0,6.3,86,0.00,,---,0.16,VWS V13.01,2013-11-27 13:18:00,
2013-11-27 08:23:00,72.7,68.3,29.79,SSW,202,0.0,6.3,86,0.00,,---,0.16,VWS V13.01,2013-11-27 13:23:00,
2013-11-27 08:28:00,72.7,68.3,29.79,SSW,202,0.0,6.3,86,0.00,,---,0.16,VWS V13.01,2013-11-27 13:28:00,
2013-11-27 08:33:00,72.9,68.4,29.79,SW,225,0.0,6.3,86,0.00,,---,0.16,VWS V13.01,2013-11-27 13:33:00,
2013-11-27 08:38:00,72.9,68.8,29.79,SW,225,2.9,6.3,87,0.00,,---,0.16,VWS V13.01,2013-11-27 13:38:00,
2013-11-27 08:43:00,72.9,68.8,29.80,SW,225,4.0,6.3,87,0.00,,---,0.16,VWS V13.01,2013-11-27 13:43:00,
2013-11-27 08:48:00,72.9,68.8,29.80,SW,225,1.1,8.7,87,0.00,,---,0.16,VWS V13.01,2013-11-27 13:48:00,
2013-11-27 08:53:00,72.9,68.8,29.79,SW,225,1.6,8.7,87,0.00,,---,0.16,VWS V13.01,2013-11-27 13:53:00,
2013-11-27 08:58:00,72.9,68.8,29.80,SW,225,0.0,8.7,87,0.00,,---,0.16,VWS V13.01,2013-11-27 13:58:00,
2013-11-27 09:03:00,73.0,68.9,29.80,SW,225,0.0,1.6,87,0.00,,---,0.16,VWS V13.01,2013-11-27 14:03:00,
2013-11-27 09:08:00,73.0,68.9,29.80,SW,225,0.0,2.5,87,0.00,,---,0.16,VWS V13.01,2013-11-27 14:08:00,
2013-11-27 09:13:00,73.4,69.3,29.80,SW,225,0.0,2.5,87,0.00,,---,0.16,VWS V13.01,2013-11-27 14:13:00,
2013-11-27 09:18:00,73.6,69.5,29.80,SSW,202,0.0,3.8,87,0.00,,---,0.16,VWS V13.01,2013-11-27 14:18:00,
2013-11-27 09:23:00,73.8,69.7,29.81,SW,225,0.0,3.8,87,0.00,,---,0.16,VWS V13.01,2013-11-27 14:23:00,
2013-11-27 09:28:00,73.8,69.7,29.81,SW,225,0.0,3.8,87,0.00,,---,0.16,VWS V13.01,2013-11-27 14:28:00,
2013-11-27 09:33:00,73.8,69.7,29.81,SW,225,0.0,3.8,87,0.00,,---,0.16,VWS V13.01,2013-11-27 14:33:00,
2013-11-27 09:38:00,73.9,69.8,29.81,SW,225,0.0,3.8,87,0.00,,---,0.16,VWS V13.01,2013-11-27 14:38:00,
2013-11-27 09:43:00,74.1,69.7,29.81,SW,225,0.0,3.8,86,0.00,,---,0.16,VWS V13.01,2013-11-27 14:43:00,
2013-11-27 09:48:00,74.3,69.5,29.81,SW,225,0.0,3.8,85,0.00,,---,0.16,VWS V13.01,2013-11-27 14:48:00,
2013-11-27 09:53:00,74.7,69.9,29.81,SW,225,0.0,3.8,85,0.00,,---,0.16,VWS V13.01,2013-11-27 14:53:00,
2013-11-27 09:58:00,74.8,70.0,29.81,SW,225,0.0,3.8,85,0.00,,---,0.16,VWS V13.01,2013-11-27 14:58:00,
2013-11-27 10:03:00,75.4,70.6,29.81,SW,225,0.0,3.6,85,0.00,,---,0.12,VWS V13.01,2013-11-27 15:03:00,
2013-11-27 10:08:00,75.4,70.6,29.81,SW,225,0.0,5.8,85,0.00,,---,0.12,VWS V13.01,2013-11-27 15:08:00,
2013-11-27 10:13:00,75.9,70.7,29.81,SW,225,0.0,5.8,84,0.00,,---,0.12,VWS V13.01,2013-11-27 15:13:00,
2013-11-27 10:18:00,76.1,69.8,29.81,SW,225,0.0,5.8,81,0.00,,---,0.12,VWS V13.01,2013-11-27 15:18:00,
2013-11-27 10:23:00,76.5,70.2,29.80,SW,225,0.0,5.8,81,0.00,,---,0.12,VWS V13.01,2013-11-27 15:23:00,
2013-11-27 10:28:00,76.6,70.4,29.80,SW,225,0.0,5.8,81,0.00,,---,0.12,VWS V13.01,2013-11-27 15:28:00,
2013-11-27 10:33:00,77.2,70.9,29.80,SW,225,6.0,6.0,81,0.00,,---,0.12,VWS V13.01,2013-11-27 15:33:00,
2013-11-27 10:38:00,77.4,67.6,29.81,WNW,292,2.7,9.4,72,0.00,,---,0.12,VWS V13.01,2013-11-27 15:38:00,
2013-11-27 10:43:00,77.5,67.8,29.81,WNW,292,2.5,9.4,72,0.00,,---,0.12,VWS V13.01,2013-11-27 15:43:00,
2013-11-27 10:48:00,77.4,67.6,29.81,NW,315,13.0,13.0,72,0.00,,---,0.12,VWS V13.01,2013-11-27 15:48:00,
2013-11-27 10:53:00,77.2,67.5,29.81,WNW,292,1.8,13.0,72,0.00,,---,0.12,VWS V13.01,2013-11-27 15:53:00,
2013-11-27 10:58:00,76.6,66.9,29.81,West,270,1.8,13.0,72,0.00,,---,0.12,VWS V13.01,2013-11-27 15:58:00,
2013-11-27 11:03:00,76.6,66.9,29.81,West,270,4.0,4.0,72,0.00,,---,0.12,VWS V13.01,2013-11-27 16:03:00,
2013-11-27 11:08:00,77.0,67.3,29.81,WNW,292,5.8,8.5,72,0.00,,---,0.12,VWS V13.01,2013-11-27 16:08:00,
2013-11-27 11:13:00,77.4,64.7,29.80,WNW,292,3.4,8.5,65,0.00,,---,0.12,VWS V13.01,2013-11-27 16:13:00,
2013-11-27 11:18:00,77.5,64.9,29.81,West,270,3.6,8.5,65,0.00,,---,0.12,VWS V13.01,2013-11-27 16:18:00,
2013-11-27 11:23:00,77.5,63.5,29.81,WSW,248,0.9,9.0,62,0.00,,---,0.12,VWS V13.01,2013-11-27 16:23:00,
2013-11-27 11:28:00,77.2,62.2,29.81,West,270,4.5,11.2,60,0.00,,---,0.12,VWS V13.01,2013-11-27 16:28:00,
2013-11-27 11:33:00,77.2,62.2,29.81,NW,315,0.0,11.4,60,0.00,,---,0.12,VWS V13.01,2013-11-27 16:33:00,
2013-11-27 11:38:00,77.4,62.4,29.81,WNW,292,1.1,11.4,60,0.00,,---,0.12,VWS V13.01,2013-11-27 16:38:00,
2013-11-27 11:43:00,77.7,62.7,29.81,West,270,2.5,11.4,60,0.00,,---,0.12,VWS V13.01,2013-11-27 16:43:00,
2013-11-27 11:48:00,78.3,62.8,29.81,South,180,5.8,11.4,59,0.00,,---,0.12,VWS V13.01,2013-11-27 16:48:00,
2013-11-27 11:53:00,78.4,61.5,29.81,WNW,292,0.0,11.4,56,0.00,,---,0.12,VWS V13.01,2013-11-27 16:53:00,
2013-11-27 11:58:00,78.4,61.5,29.80,NW,315,2.7,11.4,56,0.00,,---,0.12,VWS V13.01,2013-11-27 16:58:00,
2013-11-27 12:03:00,78.6,61.1,29.80,WNW,292,5.4,8.3,55,0.00,,---,0.12,VWS V13.01,2013-11-27 17:03:00,
2013-11-27 12:08:00,79.2,61.1,29.80,NW,315,3.6,8.3,54,0.00,,---,0.12,VWS V13.01,2013-11-27 17:08:00,
2013-11-27 12:13:00,79.5,60.4,29.80,WSW,248,3.6,9.4,52,0.00,,---,0.12,VWS V13.01,2013-11-27 17:13:00,
2013-11-27 12:18:00,79.9,60.2,29.80,NNW,338,9.4,11.2,51,0.00,,---,0.12,VWS V13.01,2013-11-27 17:18:00,
2013-11-27 12:23:00,80.1,59.8,29.79,WNW,292,1.3,11.2,50,0.00,,---,0.12,VWS V13.01,2013-11-27 17:23:00,
2013-11-27 12:28:00,80.8,61.0,29.79,West,270,1.8,11.2,51,0.00,,---,0.12,VWS V13.01,2013-11-27 17:28:00,
2013-11-27 12:33:00,80.6,60.3,29.79,WNW,292,3.8,11.2,50,0.00,,---,0.12,VWS V13.01,2013-11-27 17:33:00,
2013-11-27 12:38:00,80.6,60.3,29.80,WNW,292,1.8,11.2,50,0.00,,---,0.12,VWS V13.01,2013-11-27 17:38:00,
2013-11-27 12:43:00,80.6,60.3,29.79,WNW,292,1.1,11.2,50,0.00,,---,0.12,VWS V13.01,2013-11-27 17:43:00,
2013-11-27 12:48:00,80.6,59.1,29.79,West,270,4.0,11.2,48,0.00,,---,0.12,VWS V13.01,2013-11-27 17:48:00,
2013-11-27 12:53:00,80.4,59.0,29.79,NW,315,3.6,11.9,48,0.00,,---,0.12,VWS V13.01,2013-11-27 17:53:00,
2013-11-27 12:58:00,80.2,57.6,29.78,West,270,9.8,11.9,46,0.00,,---,0.12,VWS V13.01,2013-11-27 17:58:00,
2013-11-27 13:03:00,80.6,58.5,29.78,WSW,248,11.2,12.1,47,0.00,,---,0.12,VWS V13.01,2013-11-27 18:03:00,
2013-11-27 13:08:00,80.2,57.0,29.78,NNW,338,3.4,15.0,45,0.00,,---,0.12,VWS V13.01,2013-11-27 18:08:00,
2013-11-27 13:13:00,80.2,57.0,29.78,NNW,338,3.6,15.0,45,0.00,,---,0.12,VWS V13.01,2013-11-27 18:13:00,
2013-11-27 13:18:00,80.2,57.0,29.78,WNW,292,6.5,15.0,45,0.00,,---,0.12,VWS V13.01,2013-11-27 18:18:00,
2013-11-27 13:23:00,80.2,57.0,29.78,West,270,2.0,15.0,45,0.00,,---,0.12,VWS V13.01,2013-11-27 18:23:00,
2013-11-27 13:28:00,80.1,56.2,29.78,West,270,2.2,15.0,44,0.00,,---,0.12,VWS V13.01,2013-11-27 18:28:00,
2013-11-27 13:33:00,80.2,55.7,29.78,NW,315,5.1,15.0,43,0.00,,---,0.12,VWS V13.01,2013-11-27 18:33:00,
2013-11-27 13:38:00,79.9,54.8,29.78,WNW,292,4.0,15.0,42,0.00,,---,0.12,VWS V13.01,2013-11-27 18:38:00,
2013-11-27 13:43:00,80.1,54.3,29.78,ENE,68,6.3,15.0,41,0.00,,---,0.12,VWS V13.01,2013-11-27 18:43:00,
2013-11-27 13:48:00,80.1,54.3,29.78,SW,225,3.8,15.0,41,0.00,,---,0.12,VWS V13.01,2013-11-27 18:48:00,
2013-11-27 13:53:00,80.6,55.4,29.78,WNW,292,6.0,15.0,42,0.00,,---,0.12,VWS V13.01,2013-11-27 18:53:00,
2013-11-27 13:56:00,80.8,55.6,29.78,West,270,8.7,15.0,42,0.00,,---,0.12,VWS V13.01,2013-11-27 18:56:00,
2013-11-27 14:01:00,80.4,54.6,29.78,WSW,248,4.3,7.4,41,0.00,,---,0.12,VWS V13.01,2013-11-27 19:01:00,
2013-11-27 14:06:00,80.6,54.8,29.78,North,0,3.1,13.4,41,0.00,,---,0.12,VWS V13.01,2013-11-27 19:06:00,
2013-11-27 14:11:00,80.8,54.9,29.78,West,270,2.9,13.6,41,0.00,,---,0.12,VWS V13.01,2013-11-27 19:11:00,
2013-11-27 14:16:00,80.6,54.1,29.78,WSW,248,5.4,13.6,40,0.00,,---,0.12,VWS V13.01,2013-11-27 19:16:00,
2013-11-27 14:21:00,80.2,53.8,29.78,West,270,3.1,13.6,40,0.00,,---,0.12,VWS V13.01,2013-11-27 19:21:00,
2013-11-27 14:26:00,80.6,53.4,29.78,WNW,292,0.9,13.6,39,0.00,,---,0.12,VWS V13.01,2013-11-27 19:26:00,
2013-11-27 14:31:00,80.4,53.2,29.78,SW,225,2.9,13.6,39,0.00,,---,0.12,VWS V13.01,2013-11-27 19:31:00,
2013-11-27 14:36:00,80.4,53.2,29.78,NW,315,4.9,14.5,39,0.00,,---,0.12,VWS V13.01,2013-11-27 19:36:00,
2013-11-27 14:41:00,80.2,53.1,29.78,NW,315,2.7,14.5,39,0.00,,---,0.12,VWS V13.01,2013-11-27 19:41:00,
2013-11-27 14:46:00,80.2,52.3,29.79,WNW,292,2.7,14.5,38,0.00,,---,0.12,VWS V13.01,2013-11-27 19:46:00,
2013-11-27 14:51:00,80.1,51.5,29.79,West,270,9.0,14.5,37,0.00,,---,0.12,VWS V13.01,2013-11-27 19:51:00,
2013-11-27 14:56:00,79.7,50.4,29.79,West,270,5.1,14.5,36,0.00,,---,0.12,VWS V13.01,2013-11-27 19:56:00,
2013-11-27 15:01:00,79.5,50.2,29.79,West,270,6.9,10.1,36,0.00,,---,0.12,VWS V13.01,2013-11-27 20:01:00,
2013-11-27 15:06:00,79.2,51.4,29.79,NW,315,2.7,10.1,38,0.00,,---,0.12,VWS V13.01,2013-11-27 20:06:00,
2013-11-27 15:11:00,79.2,52.1,29.79,WNW,292,1.1,10.1,39,0.00,,---,0.12,VWS V13.01,2013-11-27 20:11:00,
2013-11-27 15:16:00,79.2,52.8,29.80,WNW,292,5.6,10.7,40,0.00,,---,0.12,VWS V13.01,2013-11-27 20:16:00,
2013-11-27 15:21:00,79.2,52.8,29.80,NW,315,1.8,10.7,40,0.00,,---,0.12,VWS V13.01,2013-11-27 20:21:00,
2013-11-27 15:26:00,79.0,52.6,29.80,NW,315,2.7,10.7,40,0.00,,---,0.12,VWS V13.01,2013-11-27 20:26:00,
2013-11-27 15:31:00,79.0,53.3,29.81,North,0,2.7,10.7,41,0.00,,---,0.12,VWS V13.01,2013-11-27 20:31:00,
2013-11-27 15:36:00,79.0,53.3,29.81,WNW,292,1.3,10.7,41,0.00,,---,0.12,VWS V13.01,2013-11-27 20:36:00,
2013-11-27 15:41:00,78.6,52.3,29.81,WNW,292,4.5,11.9,40,0.00,,---,0.12,VWS V13.01,2013-11-27 20:41:00,
2013-11-27 15:46:00,78.1,51.8,29.81,SW,225,2.9,11.9,40,0.00,,---,0.12,VWS V13.01,2013-11-27 20:46:00,
2013-11-27 15:51:00,78.1,52.5,29.81,SW,225,3.8,11.9,41,0.00,,---,0.12,VWS V13.01,2013-11-27 20:51:00,
2013-11-27 15:56:00,78.1,52.5,29.81,WNW,292,8.3,11.9,41,0.00,,---,0.12,VWS V13.01,2013-11-27 20:56:00,
2013-11-27 16:00:00,78.1,52.5,29.81,West,270,3.4,3.8,41,0.00,,---,0.12,VWS V13.01,2013-11-27 21:00:00,
2013-11-27 16:05:00,77.9,51.7,29.81,North,0,0.0,9.2,40,0.00,,---,0.12,VWS V13.01,2013-11-27 21:05:00,
2013-11-27 16:10:00,77.5,52.0,29.81,WSW,248,2.5,11.0,41,0.00,,---,0.12,VWS V13.01,2013-11-27 21:10:00,
2013-11-27 16:15:00,77.5,52.0,29.82,WNW,292,2.9,11.0,41,0.00,,---,0.12,VWS V13.01,2013-11-27 21:15:00,
2013-11-27 16:20:00,77.2,51.0,29.82,NW,315,0.0,11.0,40,0.00,,---,0.12,VWS V13.01,2013-11-27 21:20:00,
2013-11-27 16:25:00,76.8,52.0,29.82,North,0,1.3,11.0,42,0.00,,---,0.12,VWS V13.01,2013-11-27 21:25:00,
2013-11-27 16:30:00,76.5,53.6,29.82,NW,315,0.0,11.0,45,0.00,,---,0.12,VWS V13.01,2013-11-27 21:30:00,
2013-11-27 16:35:00,76.1,53.2,29.82,West,270,2.5,11.0,45,0.00,,---,0.12,VWS V13.01,2013-11-27 21:35:00,
2013-11-27 16:40:00,75.9,53.7,29.83,WNW,292,2.5,11.0,46,0.00,,---,0.12,VWS V13.01,2013-11-27 21:40:00,
2013-11-27 16:45:00,75.6,53.9,29.83,WNW,292,1.8,11.0,47,0.00,,---,0.12,VWS V13.01,2013-11-27 21:45:00,
2013-11-27 16:50:00,75.4,53.8,29.83,NW,315,3.1,11.0,47,0.00,,---,0.12,VWS V13.01,2013-11-27 21:50:00,
2013-11-27 16:55:00,75.4,53.2,29.83,WNW,292,2.0,11.0,46,0.00,,---,0.12,VWS V13.01,2013-11-27 21:55:00,
2013-11-27 17:00:00,75.0,52.9,29.83,WSW,248,5.4,5.4,46,0.00,,---,0.12,VWS V13.01,2013-11-27 22:00:00,
2013-11-27 17:05:00,74.7,51.9,29.83,NW,315,5.6,9.2,45,0.00,,---,0.12,VWS V13.01,2013-11-27 22:05:00,
2013-11-27 17:10:00,74.3,51.0,29.83,NNW,338,7.8,9.2,44,0.00,,---,0.12,VWS V13.01,2013-11-27 22:10:00,
2013-11-27 17:15:00,74.1,52.0,29.84,WNW,292,5.1,9.2,46,0.00,,---,0.12,VWS V13.01,2013-11-27 22:15:00,
2013-11-27 17:20:00,73.9,51.9,29.84,WNW,292,0.9,9.2,46,0.00,,---,0.12,VWS V13.01,2013-11-27 22:20:00,
2013-11-27 17:25:00,73.8,52.3,29.84,NW,315,0.0,9.2,47,0.00,,---,0.12,VWS V13.01,2013-11-27 22:25:00,
2013-11-27 17:30:00,73.6,52.7,29.85,NW,315,3.6,9.2,48,0.00,,---,0.12,VWS V13.01,2013-11-27 22:30:00,
2013-11-27 17:35:00,73.0,52.2,29.85,WNW,292,2.7,11.4,48,0.00,,---,0.12,VWS V13.01,2013-11-27 22:35:00,
2013-11-27 17:40:00,72.9,52.0,29.85,NW,315,3.8,11.4,48,0.00,,---,0.12,VWS V13.01,2013-11-27 22:40:00,
2013-11-27 17:45:00,72.7,52.4,29.86,WSW,248,2.7,11.4,49,0.00,,---,0.12,VWS V13.01,2013-11-27 22:45:00,
2013-11-27 17:50:00,72.5,52.3,29.86,NW,315,1.3,11.4,49,0.00,,---,0.12,VWS V13.01,2013-11-27 22:50:00,
2013-11-27 17:55:00,72.1,52.5,29.86,WNW,292,1.8,11.4,50,0.00,,---,0.12,VWS V13.01,2013-11-27 22:55:00,
2013-11-27 18:00:00,72.0,52.3,29.87,WNW,292,2.5,4.0,50,0.00,,---,0.12,VWS V13.01,2013-11-27 23:00:00,
2013-11-27 18:05:00,71.8,52.2,29.87,NNW,338,2.9,7.2,50,0.00,,---,0.12,VWS V13.01,2013-11-27 23:05:00,
2013-11-27 18:10:00,71.6,52.5,29.87,NW,315,0.0,9.6,51,0.00,,---,0.12,VWS V13.01,2013-11-27 23:10:00,
2013-11-27 18:15:00,71.4,52.4,29.88,WNW,292,0.0,9.6,51,0.00,,---,0.12,VWS V13.01,2013-11-27 23:15:00,
2013-11-27 18:20:00,71.2,52.2,29.88,NW,315,2.9,9.6,51,0.00,,---,0.12,VWS V13.01,2013-11-27 23:20:00,
2013-11-27 18:25:00,71.1,52.6,29.88,WSW,248,2.0,9.6,52,0.00,,---,0.12,VWS V13.01,2013-11-27 23:25:00,
2013-11-27 18:30:00,70.9,52.4,29.88,NW,315,0.0,9.6,52,0.00,,---,0.12,VWS V13.01,2013-11-27 23:30:00,
2013-11-27 18:35:00,70.7,52.2,29.89,WNW,292,0.0,9.6,52,0.00,,---,0.12,VWS V13.01,2013-11-27 23:35:00,
2013-11-27 18:40:00,70.5,52.1,29.89,WNW,292,0.0,9.6,52,0.00,,---,0.12,VWS V13.01,2013-11-27 23:40:00,
2013-11-27 18:45:00,70.3,51.9,29.89,WNW,292,0.0,9.6,52,0.00,,---,0.12,VWS V13.01,2013-11-27 23:45:00,
2013-11-27 18:50:00,70.2,51.7,29.89,West,270,1.3,9.6,52,0.00,,---,0.12,VWS V13.01,2013-11-27 23:50:00,
2013-11-27 18:55:00,70.2,51.7,29.90,NW,315,0.0,9.6,52,0.00,,---,0.12,VWS V13.01,2013-11-27 23:55:00,
2013-11-27 19:00:00,70.0,51.6,29.90,North,0,0.0,0.0,52,0.00,,---,0.12,VWS V13.01,2013-11-28 00:00:00,
2013-11-27 19:05:00,69.8,51.4,29.91,West,270,0.0,4.5,52,0.00,,---,0.12,VWS V13.01,2013-11-28 00:05:00,
2013-11-27 19:10:00,69.4,51.1,29.91,WNW,292,0.9,6.7,52,0.00,,---,0.12,VWS V13.01,2013-11-28 00:10:00,
2013-11-27 19:15:00,69.3,50.9,29.91,WNW,292,0.0,7.2,52,0.00,,---,0.12,VWS V13.01,2013-11-28 00:15:00,
2013-11-27 19:20:00,69.3,50.9,29.92,WNW,292,2.7,7.4,52,0.00,,---,0.12,VWS V13.01,2013-11-28 00:20:00,
2013-11-27 19:25:00,69.1,50.7,29.92,West,270,5.4,7.4,52,0.00,,---,0.12,VWS V13.01,2013-11-28 00:25:00,
2013-11-27 19:30:00,68.9,53.1,29.93,WNW,292,1.6,8.7,57,0.00,,---,0.12,VWS V13.01,2013-11-28 00:30:00,
2013-11-27 19:35:00,68.7,52.9,29.93,WNW,292,1.3,8.7,57,0.00,,---,0.12,VWS V13.01,2013-11-28 00:35:00,
2013-11-27 19:40:00,68.5,53.7,29.93,NNW,338,0.0,8.7,59,0.00,,---,0.12,VWS V13.01,2013-11-28 00:40:00,
2013-11-27 19:45:00,68.2,53.3,29.93,WNW,292,5.6,8.7,59,0.00,,---,0.12,VWS V13.01,2013-11-28 00:45:00,
2013-11-27 19:50:00,68.2,53.3,29.94,NNW,338,3.4,8.7,59,0.00,,---,0.12,VWS V13.01,2013-11-28 00:50:00,
2013-11-27 19:55:00,67.8,53.0,29.94,NNW,338,7.8,8.7,59,0.00,,---,0.12,VWS V13.01,2013-11-28 00:55:00,
2013-11-27 20:00:00,67.6,52.8,29.94,WNW,292,2.2,6.0,59,0.00,,---,0.12,VWS V13.01,2013-11-28 01:00:00,
2013-11-27 20:05:00,67.3,52.5,29.95,North,0,1.8,8.1,59,0.00,,---,0.12,VWS V13.01,2013-11-28 01:05:00,
2013-11-27 20:10:00,66.9,53.5,29.95,WNW,292,2.0,11.2,62,0.00,,---,0.12,VWS V13.01,2013-11-28 01:10:00,
2013-11-27 20:15:00,66.7,53.3,29.95,NNW,338,1.8,11.2,62,0.00,,---,0.12,VWS V13.01,2013-11-28 01:15:00,
2013-11-27 20:20:00,66.6,53.2,29.96,WNW,292,1.8,11.2,62,0.00,,---,0.12,VWS V13.01,2013-11-28 01:20:00,
2013-11-27 20:25:00,66.6,53.2,29.96,NW,315,0.0,11.2,62,0.00,,---,0.12,VWS V13.01,2013-11-28 01:25:00,
2013-11-27 20:30:00,66.0,52.6,29.96,NW,315,3.6,11.2,62,0.00,,---,0.12,VWS V13.01,2013-11-28 01:30:00,
2013-11-27 20:35:00,65.8,52.5,29.96,NNW,338,4.7,11.2,62,0.00,,---,0.12,VWS V13.01,2013-11-28 01:35:00,
2013-11-27 20:40:00,65.8,52.5,29.97,NNW,338,4.5,11.2,62,0.00,,---,0.12,VWS V13.01,2013-11-28 01:40:00,
2013-11-27 20:45:00,65.7,52.3,29.97,NNW,338,2.7,11.2,62,0.00,,---,0.12,VWS V13.01,2013-11-28 01:45:00,
2013-11-27 20:50:00,65.3,52.0,29.98,North,0,3.4,11.2,62,0.00,,---,0.12,VWS V13.01,2013-11-28 01:50:00,
2013-11-27 20:55:00,65.1,51.8,29.98,North,0,0.0,11.2,62,0.00,,---,0.12,VWS V13.01,2013-11-28 01:55:00,
2013-11-27 21:00:00,64.8,51.5,29.98,WNW,292,2.9,5.6,62,0.00,,---,0.12,VWS V13.01,2013-11-28 02:00:00,
2013-11-27 21:05:00,64.8,51.5,29.98,West,270,0.0,9.4,62,0.00,,---,0.12,VWS V13.01,2013-11-28 02:05:00,
2013-11-27 21:10:00,64.6,51.3,29.99,West,270,2.5,11.9,62,0.00,,---,0.12,VWS V13.01,2013-11-28 02:10:00,
2013-11-27 21:15:00,64.4,51.1,29.99,NW,315,1.6,11.9,62,0.00,,---,0.12,VWS V13.01,2013-11-28 02:15:00,
2013-11-27 21:20:00,64.2,50.9,29.99,NW,315,0.0,11.9,62,0.00,,---,0.12,VWS V13.01,2013-11-28 02:20:00,
2013-11-27 21:25:00,64.0,50.8,29.99,North,0,6.3,11.9,62,0.00,,---,0.12,VWS V13.01,2013-11-28 02:25:00,
2013-11-27 21:30:00,63.7,50.4,29.99,North,0,1.3,11.9,62,0.00,,---,0.12,VWS V13.01,2013-11-28 02:30:00,
2013-11-27 21:35:00,63.5,51.5,30.00,NNW,338,2.5,11.9,65,0.00,,---,0.12,VWS V13.01,2013-11-28 02:35:00,
2013-11-27 21:40:00,63.3,51.0,30.00,North,0,4.3,11.9,64,0.00,,---,0.12,VWS V13.01,2013-11-28 02:40:00,
2013-11-27 21:45:00,63.1,50.8,30.00,WNW,292,0.0,11.9,64,0.00,,---,0.12,VWS V13.01,2013-11-28 02:45:00,
2013-11-27 21:50:00,63.0,50.6,30.00,WNW,292,0.0,11.9,64,0.00,,---,0.12,VWS V13.01,2013-11-28 02:50:00,
2013-11-27 21:55:00,62.8,50.4,30.00,NNW,338,2.7,13.6,64,0.00,,---,0.12,VWS V13.01,2013-11-28 02:55:00,
2013-11-27 22:00:00,62.8,50.4,30.00,NNW,338,4.9,7.8,64,0.00,,---,0.12,VWS V13.01,2013-11-28 03:00:00,
2013-11-27 22:05:00,62.4,50.1,30.00,NW,315,0.0,8.1,64,0.00,,---,0.12,VWS V13.01,2013-11-28 03:05:00,
2013-11-27 22:10:00,62.2,49.9,30.01,WNW,292,0.0,8.1,64,0.00,,---,0.12,VWS V13.01,2013-11-28 03:10:00,
2013-11-27 22:15:00,62.4,50.1,30.01,NNW,338,0.0,8.1,64,0.00,,---,0.12,VWS V13.01,2013-11-28 03:15:00,
2013-11-27 22:20:00,62.2,49.9,30.01,WNW,292,1.1,9.6,64,0.00,,---,0.12,VWS V13.01,2013-11-28 03:20:00,
2013-11-27 22:25:00,62.1,48.9,30.01,WNW,292,4.3,9.6,62,0.00,,---,0.12,VWS V13.01,2013-11-28 03:25:00,
2013-11-27 22:30:00,62.1,48.9,30.01,WNW,292,0.0,9.6,62,0.00,,---,0.12,VWS V13.01,2013-11-28 03:30:00,
2013-11-27 22:35:00,61.9,48.7,30.02,NW,315,2.5,9.6,62,0.00,,---,0.12,VWS V13.01,2013-11-28 03:35:00,
2013-11-27 22:40:00,61.7,48.6,30.01,NNW,338,0.0,9.6,62,0.00,,---,0.12,VWS V13.01,2013-11-28 03:40:00,
2013-11-27 22:45:00,61.5,48.4,30.01,North,0,4.7,9.6,62,0.00,,---,0.12,VWS V13.01,2013-11-28 03:45:00,
2013-11-27 22:50:00,61.5,48.4,30.02,NW,315,0.0,9.6,62,0.00,,---,0.12,VWS V13.01,2013-11-28 03:50:00,
2013-11-27 22:55:00,61.3,49.5,30.01,NW,315,0.0,9.6,65,0.00,,---,0.12,VWS V13.01,2013-11-28 03:55:00,
2013-11-27 23:00:00,61.3,49.5,30.02,NW,315,0.0,0.0,65,0.00,,---,0.12,VWS V13.01,2013-11-28 04:00:00,
2013-11-27 23:05:00,61.2,49.7,30.02,North,0,0.0,5.8,66,0.00,,---,0.12,VWS V13.01,2013-11-28 04:05:00,
2013-11-27 23:10:00,61.2,49.7,30.02,NNW,338,0.0,5.8,66,0.00,,---,0.12,VWS V13.01,2013-11-28 04:10:00,
2013-11-27 23:15:00,61.3,50.3,30.02,NNW,338,0.0,5.8,67,0.00,,---,0.12,VWS V13.01,2013-11-28 04:15:00,
2013-11-27 23:20:00,61.2,50.1,30.02,NNW,338,0.0,5.8,67,0.00,,---,0.12,VWS V13.01,2013-11-28 04:20:00,
2013-11-27 23:25:00,61.2,50.1,30.02,WNW,292,9.0,9.0,67,0.00,,---,0.12,VWS V13.01,2013-11-28 04:25:00,
2013-11-27 23:30:00,61.0,50.0,30.02,NW,315,0.0,9.0,67,0.00,,---,0.12,VWS V13.01,2013-11-28 04:30:00,
2013-11-27 23:35:00,61.0,50.0,30.02,WSW,248,2.7,9.6,67,0.00,,---,0.12,VWS V13.01,2013-11-28 04:35:00,
2013-11-27 23:40:00,60.6,49.6,30.03,WNW,292,0.0,9.6,67,0.00,,---,0.12,VWS V13.01,2013-11-28 04:40:00,
2013-11-27 23:45:00,60.4,49.4,30.02,NW,315,5.4,9.6,67,0.00,,---,0.12,VWS V13.01,2013-11-28 04:45:00,
2013-11-27 23:50:00,59.9,48.9,30.03,WNW,292,0.0,9.6,67,0.00,,---,0.12,VWS V13.01,2013-11-28 04:50:00,
2013-11-27 23:55:00,59.9,48.1,30.03,North,0,1.8,9.6,65,0.00,,---,0.12,VWS V13.01,2013-11-28 04:55:00,